Time;durP1;ratioP1;P1;durP2;ratioP2;P2;SDS_P1;SDS_P2;PMS_P1;PMS_P2;Temp;Humidity;BMP_temperature;BMP_pressure;BME280_temperature;BME280_humidity;BME280_pressure;Samples;Min_cycle;Max_cycle;Signal;HPM_P1;HPM_P2
2021/10/06 00:01:06;;;;;;;3.27;1.07;;;;;;;9.98;100.00;97808.19;4952105;28;20296;-70
2021/10/06 00:03:35;;;;;;;1.20;1.20;;;;;;;9.90;100.00;97808.19;4955670;28;20237;-69
2021/10/06 00:06:03;;;;;;;1.10;1.10;;;;;;;9.78;100.00;97812.97;4954411;28;20225;-69
2021/10/06 00:08:32;;;;;;;1.00;1.00;;;;;;;9.68;100.00;97808.69;4958800;28;20682;-68
2021/10/06 00:11:00;;;;;;;2.10;1.20;;;;;;;9.56;100.00;97816.09;4924087;28;20380;-69
2021/10/06 00:13:28;;;;;;;1.57;1.30;;;;;;;9.50;100.00;97824.69;4957277;28;20225;-68
2021/10/06 00:15:56;;;;;;;1.77;1.67;;;;;;;9.38;100.00;97825.97;4955561;28;20207;-69
2021/10/06 00:18:24;;;;;;;2.53;1.10;;;;;;;9.30;100.00;97836.53;4959465;28;20611;-69
2021/10/06 00:20:54;;;;;;;1.03;1.03;;;;;;;9.26;100.00;97836.81;4954894;28;20241;-67
2021/10/06 00:23:22;;;;;;;2.10;1.30;;;;;;;9.20;100.00;97847.22;4956341;28;20257;-69
2021/10/06 00:25:50;;;;;;;1.87;1.17;;;;;;;9.16;100.00;97840.59;4919750;28;20603;-68
2021/10/06 00:28:18;;;;;;;1.80;1.37;;;;;;;9.18;100.00;97842.09;4944575;28;20206;-69
2021/10/06 00:30:46;;;;;;;1.60;1.10;;;;;;;9.04;100.00;97850.63;4956745;28;20663;-67
2021/10/06 00:33:14;;;;;;;1.90;1.47;;;;;;;8.89;100.00;97835.31;4955739;28;20234;-69
2021/10/06 00:35:42;;;;;;;1.97;1.60;;;;;;;8.81;100.00;97851.16;4953862;28;20213;-68
2021/10/06 00:38:12;;;;;;;3.47;1.83;;;;;;;8.99;100.00;97856.38;4951319;28;20594;-69
2021/10/06 00:40:40;;;;;;;1.77;1.43;;;;;;;8.85;100.00;97849.84;4948595;28;20230;-68
2021/10/06 00:43:08;;;;;;;2.60;1.47;;;;;;;8.78;100.00;97857.59;4932257;28;20227;-69
2021/10/06 00:45:37;;;;;;;1.40;1.23;;;;;;;8.74;100.00;97863.31;4957096;28;20206;-69
2021/10/06 00:48:05;;;;;;;1.33;1.23;;;;;;;8.63;100.00;97869.69;4953125;28;20428;-69
2021/10/06 00:50:34;;;;;;;1.40;1.30;;;;;;;8.52;100.00;97876.88;4955506;28;20241;-69
2021/10/06 00:53:02;;;;;;;1.20;1.20;;;;;;;8.47;100.00;97873.00;4950225;28;20257;-69
2021/10/06 00:55:31;;;;;;;1.40;1.40;;;;;;;8.38;100.00;97883.50;4960904;28;20229;-69
2021/10/06 00:57:59;;;;;;;1.80;1.40;;;;;;;8.31;100.00;97885.09;4918358;28;20313;-69
2021/10/06 01:00:28;;;;;;;1.37;1.30;;;;;;;8.31;100.00;97881.63;4916141;28;20324;-69
2021/10/06 01:02:56;;;;;;;2.10;1.53;;;;;;;8.26;100.00;97888.19;4953516;28;20237;-68
2021/10/06 01:05:24;;;;;;;2.60;1.40;;;;;;;8.28;100.00;97885.41;4955955;28;20207;-70
2021/10/06 01:07:55;;;;;;;2.13;1.93;;;;;;;8.43;100.00;97890.13;4946897;28;20228;-70
2021/10/06 01:10:23;;;;;;;3.90;1.30;;;;;;;8.53;100.00;97883.00;4955651;28;20233;-69
2021/10/06 01:12:53;;;;;;;3.27;1.33;;;;;;;8.65;100.00;97879.13;4945676;28;20226;-67
2021/10/06 01:15:22;;;;;;;2.13;1.70;;;;;;;8.69;100.00;97883.13;4919593;28;20384;-69
2021/10/06 01:17:53;;;;;;;4.10;1.83;;;;;;;8.72;100.00;97884.63;4952772;28;20206;-68
2021/10/06 01:20:22;;;;;;;1.30;1.27;;;;;;;8.64;100.00;97880.13;4955062;28;20206;-69
2021/10/06 01:22:54;;;;;;;1.70;1.60;;;;;;;8.58;100.00;97869.31;4951098;28;20242;-68
2021/10/06 01:25:23;;;;;;;2.50;1.40;;;;;;;8.53;100.00;97881.19;4956798;28;20221;-69
2021/10/06 01:27:51;;;;;;;3.43;1.70;;;;;;;8.58;100.00;97882.53;4940673;28;20221;-68
2021/10/06 01:30:19;;;;;;;2.83;1.70;;;;;;;8.63;100.00;97885.53;4922598;28;20222;-69
2021/10/06 01:32:48;;;;;;;1.40;1.30;;;;;;;8.62;100.00;97883.88;4953327;28;20234;-67
2021/10/06 01:35:17;;;;;;;1.90;1.50;;;;;;;8.61;100.00;97890.16;4955710;28;20619;-69
2021/10/06 01:37:46;;;;;;;1.47;1.30;;;;;;;8.56;100.00;97897.72;4955085;28;20317;-67
2021/10/06 01:40:17;;;;;;;1.40;1.30;;;;;;;8.57;100.00;97899.38;4943994;28;20206;-68
2021/10/06 01:42:45;;;;;;;1.60;1.50;;;;;;;8.56;100.00;97892.44;4954789;28;20474;-69
2021/10/06 01:45:19;;;;;;;3.20;1.60;;;;;;;8.55;100.00;97896.91;4943139;28;20222;-69
2021/10/06 01:47:48;;;;;;;1.20;1.10;;;;;;;8.59;100.00;97898.25;4928097;28;22326;-69
2021/10/06 01:50:21;;;;;;;3.90;1.70;;;;;;;8.55;100.00;97899.53;4955629;28;20325;-69
2021/10/06 01:52:50;;;;;;;2.87;1.37;;;;;;;8.48;100.00;97906.34;4952168;28;20435;-69
2021/10/06 01:55:26;;;;;;;2.33;1.20;;;;;;;8.46;100.00;97903.88;4952594;28;20671;-69
2021/10/06 01:57:54;;;;;;;1.60;1.50;;;;;;;8.43;100.00;97913.91;4954160;28;20414;-69
2021/10/06 02:00:23;;;;;;;1.30;1.30;;;;;;;8.39;100.00;97908.94;4928767;28;20226;-68
2021/10/06 02:02:51;;;;;;;1.67;1.60;;;;;;;8.41;100.00;97927.28;4923594;28;20304;-67
2021/10/06 02:05:20;;;;;;;2.43;2.27;;;;;;;8.43;100.00;97927.13;4950450;28;20353;-69
2021/10/06 02:07:48;;;;;;;1.73;1.63;;;;;;;8.38;100.00;97930.22;4952184;28;20210;-67
2021/10/06 02:10:16;;;;;;;3.60;2.07;;;;;;;8.46;100.00;97921.53;4951708;28;20772;-69
2021/10/06 02:12:46;;;;;;;1.27;1.10;;;;;;;8.38;100.00;97925.75;4953482;28;20390;-67
2021/10/06 02:15:14;;;;;;;2.00;1.53;;;;;;;8.44;100.00;97921.69;4938883;28;20329;-68
2021/10/06 02:17:42;;;;;;;2.23;1.40;;;;;;;8.52;100.00;97913.88;4917805;28;20223;-67
2021/10/06 02:20:11;;;;;;;2.03;1.43;;;;;;;8.56;100.00;97908.28;4951108;28;20211;-67
2021/10/06 02:22:39;;;;;;;1.70;1.60;;;;;;;8.63;100.00;97915.44;4954159;28;20237;-68
2021/10/06 02:25:08;;;;;;;1.40;1.30;;;;;;;8.51;100.00;97909.56;4949738;28;20568;-68
2021/10/06 02:27:37;;;;;;;1.97;1.83;;;;;;;8.58;100.00;97906.31;4944024;28;20210;-70
2021/10/06 02:30:09;;;;;;;1.80;1.70;;;;;;;8.51;100.00;97906.06;4951010;28;20691;-70
2021/10/06 02:32:37;;;;;;;2.37;1.13;;;;;;;8.48;100.00;97911.63;4902814;28;20241;-67
2021/10/06 02:35:07;;;;;;;2.27;1.60;;;;;;;8.46;100.00;97935.56;4963039;28;20237;-69
2021/10/06 02:37:35;;;;;;;1.57;1.50;;;;;;;8.44;100.00;97934.91;4968444;28;20237;-67
2021/10/06 02:40:04;;;;;;;2.10;1.30;;;;;;;8.44;100.00;97931.41;4952681;28;20427;-69
2021/10/06 02:42:32;;;;;;;5.03;1.80;;;;;;;8.48;100.00;97922.19;4955071;28;20264;-68
2021/10/06 02:45:00;;;;;;;2.67;1.27;;;;;;;8.50;100.00;97933.47;4947866;28;20753;-69
2021/10/06 02:47:30;;;;;;;1.60;1.50;;;;;;;8.53;100.00;97930.56;4931648;28;20210;-68
2021/10/06 02:49:59;;;;;;;1.57;1.50;;;;;;;8.50;100.00;97931.69;4924449;28;20458;-69
2021/10/06 02:52:27;;;;;;;1.43;1.43;;;;;;;8.61;100.00;97940.34;4938515;28;20206;-67
2021/10/06 02:54:55;;;;;;;1.50;1.50;;;;;;;8.63;100.00;97944.50;4948780;28;20210;-70
2021/10/06 02:57:23;;;;;;;1.83;1.73;;;;;;;8.62;100.00;97945.47;4952077;28;20639;-69
2021/10/06 02:59:51;;;;;;;1.20;1.20;;;;;;;8.64;100.00;97938.22;4934582;28;20346;-68
2021/10/06 03:02:19;;;;;;;1.60;1.40;;;;;;;8.61;100.00;97941.19;4943849;28;20230;-69
2021/10/06 03:04:49;;;;;;;2.97;1.67;;;;;;;8.62;100.00;97931.44;4913322;28;20225;-68
2021/10/06 03:07:17;;;;;;;1.93;1.80;;;;;;;8.73;100.00;97931.22;4961258;28;20210;-69
2021/10/06 03:09:45;;;;;;;2.77;1.67;;;;;;;8.78;100.00;97936.84;4915857;28;20692;-68
2021/10/06 03:12:14;;;;;;;1.20;1.20;;;;;;;8.77;100.00;97939.63;4942815;28;20210;-68
2021/10/06 03:14:42;;;;;;;2.10;1.17;;;;;;;8.69;100.00;97950.97;4952076;28;20230;-68
2021/10/06 03:17:10;;;;;;;2.80;1.37;;;;;;;8.74;100.00;97964.56;4941332;28;20413;-69
2021/10/06 03:19:38;;;;;;;1.33;1.33;;;;;;;8.69;100.00;97961.53;4954687;28;20603;-67
2021/10/06 03:22:08;;;;;;;1.37;1.27;;;;;;;8.65;100.00;97971.59;4951572;28;20230;-69
2021/10/06 03:24:36;;;;;;;1.43;1.20;;;;;;;8.73;100.00;97957.63;4915514;28;20272;-68
2021/10/06 03:27:04;;;;;;;2.00;1.40;;;;;;;8.65;100.00;97971.59;4947474;28;20495;-69
2021/10/06 03:29:32;;;;;;;3.50;1.40;;;;;;;8.64;100.00;97975.22;4953818;28;20210;-69
2021/10/06 03:32:00;;;;;;;1.43;1.33;;;;;;;8.67;100.00;97990.75;4951281;28;20344;-69
2021/10/06 03:34:29;;;;;;;3.47;1.50;;;;;;;8.74;100.00;97987.50;4947165;28;20226;-69
2021/10/06 03:36:57;;;;;;;0.90;0.90;;;;;;;8.72;100.00;97989.47;4957185;28;20232;-69
2021/10/06 03:39:26;;;;;;;2.03;1.20;;;;;;;8.73;100.00;97985.84;4959420;28;20446;-69
2021/10/06 03:41:55;;;;;;;3.40;1.50;;;;;;;8.78;100.00;97988.84;4920403;28;20367;-69
2021/10/06 03:44:23;;;;;;;1.83;1.73;;;;;;;8.71;100.00;97985.16;4960964;28;20226;-69
2021/10/06 03:46:51;;;;;;;2.37;1.77;;;;;;;8.68;100.00;97989.78;4955062;28;20206;-67
2021/10/06 03:49:19;;;;;;;1.50;1.40;;;;;;;8.66;100.00;97989.09;4950243;28;20597;-69
2021/10/06 03:51:47;;;;;;;1.47;1.27;;;;;;;8.73;100.00;97999.91;4958217;28;20202;-68
2021/10/06 03:54:15;;;;;;;1.97;1.80;;;;;;;8.77;100.00;97992.47;4960061;28;20229;-69
2021/10/06 03:56:45;;;;;;;3.13;1.37;;;;;;;8.74;100.00;98006.84;4923968;28;20221;-69
2021/10/06 03:59:13;;;;;;;4.23;1.80;;;;;;;8.77;100.00;98006.53;4958332;28;20214;-67
2021/10/06 04:01:41;;;;;;;1.30;1.20;;;;;;;8.68;100.00;98003.00;4953861;28;20405;-67
2021/10/06 04:04:09;;;;;;;1.63;1.47;;;;;;;8.67;100.00;98003.97;4941109;28;20233;-68
2021/10/06 04:06:37;;;;;;;4.07;1.33;;;;;;;8.63;100.00;98015.81;4942417;28;20217;-70
2021/10/06 04:09:05;;;;;;;2.80;1.57;;;;;;;8.62;100.00;98019.44;4960277;28;20202;-68
2021/10/06 04:11:34;;;;;;;1.70;1.60;;;;;;;8.56;100.00;98025.34;4923170;28;20294;-69
2021/10/06 04:14:03;;;;;;;1.53;1.23;;;;;;;8.56;100.00;98032.41;4956264;28;20230;-68
2021/10/06 04:16:31;;;;;;;1.40;1.30;;;;;;;8.46;100.00;98029.81;4957521;28;20220;-68
2021/10/06 04:18:59;;;;;;;1.60;1.27;;;;;;;8.51;100.00;98027.56;4958199;28;20583;-69
2021/10/06 04:21:28;;;;;;;3.57;1.70;;;;;;;8.46;100.00;98029.81;4925360;28;20222;-69
2021/10/06 04:23:56;;;;;;;2.33;1.27;;;;;;;8.51;100.00;98033.69;4953448;28;20229;-69
2021/10/06 04:26:24;;;;;;;2.67;1.37;;;;;;;8.51;100.00;98044.25;4928952;28;20210;-68
2021/10/06 04:28:52;;;;;;;1.40;1.37;;;;;;;8.60;100.00;98039.91;4954611;28;20418;-68
2021/10/06 04:31:22;;;;;;;1.90;1.43;;;;;;;8.55;100.00;98044.81;4942978;28;20449;-67
2021/10/06 04:33:50;;;;;;;1.10;1.10;;;;;;;8.51;100.00;98048.69;4955172;28;20676;-67
2021/10/06 04:36:18;;;;;;;1.53;1.33;;;;;;;8.49;100.00;98043.59;4945116;28;20225;-66
2021/10/06 04:38:46;;;;;;;2.87;1.60;;;;;;;8.51;100.00;98044.25;4957594;28;20843;-67
2021/10/06 04:41:14;;;;;;;1.60;1.50;;;;;;;8.58;100.00;98044.50;4950930;28;20729;-66
2021/10/06 04:43:43;;;;;;;3.87;1.73;;;;;;;8.58;100.00;98043.66;4931982;28;20481;-68
2021/10/06 04:46:11;;;;;;;1.17;1.17;;;;;;;8.50;100.00;98044.41;4957022;28;20206;-70
2021/10/06 04:48:41;;;;;;;1.33;1.30;;;;;;;8.54;100.00;98048.44;4953432;28;20316;-68
2021/10/06 04:51:09;;;;;;;3.40;2.00;;;;;;;8.53;100.00;98054.69;4944803;28;20821;-69
2021/10/06 04:53:37;;;;;;;1.20;1.20;;;;;;;8.53;100.00;98052.88;4946194;28;20470;-67
2021/10/06 04:56:06;;;;;;;1.17;1.10;;;;;;;8.53;100.00;98055.50;4955016;28;20229;-69
2021/10/06 04:58:34;;;;;;;1.33;1.23;;;;;;;8.57;100.00;98053.41;4912680;28;20215;-67
2021/10/06 05:01:02;;;;;;;1.27;1.27;;;;;;;8.51;100.00;98056.63;4949528;28;20349;-69
2021/10/06 05:03:30;;;;;;;1.73;1.37;;;;;;;8.57;100.00;98060.50;4952692;28;20234;-70
2021/10/06 05:06:00;;;;;;;1.73;1.40;;;;;;;8.60;100.00;98061.03;4942702;28;20907;-69
2021/10/06 05:08:28;;;;;;;1.53;1.23;;;;;;;8.56;100.00;98061.47;4954471;28;20252;-67
2021/10/06 05:10:56;;;;;;;1.57;1.47;;;;;;;8.61;100.00;98060.06;4947664;28;20225;-66
2021/10/06 05:13:24;;;;;;;5.33;1.33;;;;;;;8.57;100.00;98069.25;4923072;28;20245;-68
2021/10/06 05:15:53;;;;;;;1.90;1.10;;;;;;;8.57;100.00;98076.34;4955797;28;20207;-69
2021/10/06 05:18:21;;;;;;;1.50;1.40;;;;;;;8.47;100.00;98074.56;4890328;28;20229;-71
2021/10/06 05:20:49;;;;;;;3.23;1.87;;;;;;;8.53;100.00;98070.53;4949705;28;20213;-70
2021/10/06 05:23:18;;;;;;;2.37;1.40;;;;;;;8.55;100.00;98068.59;4944833;28;20695;-71
2021/10/06 05:25:46;;;;;;;1.43;1.40;;;;;;;8.51;100.00;98072.47;4953176;28;20297;-70
2021/10/06 05:28:15;;;;;;;2.40;1.53;;;;;;;8.51;100.00;98080.41;4954516;28;20218;-68
2021/10/06 05:30:43;;;;;;;2.63;1.10;;;;;;;8.56;100.00;98066.75;4955337;28;20215;-66
2021/10/06 05:33:11;;;;;;;1.93;1.70;;;;;;;8.62;100.00;98064.34;4918782;28;20242;-67
2021/10/06 05:35:40;;;;;;;2.93;1.80;;;;;;;8.59;100.00;98061.16;4952784;28;20208;-66
2021/10/06 05:38:08;;;;;;;2.40;1.27;;;;;;;8.58;100.00;98065.63;4954672;28;20538;-66
2021/10/06 05:40:38;;;;;;;1.50;1.37;;;;;;;8.58;100.00;98065.63;4943868;28;20671;-66
2021/10/06 05:43:10;;;;;;;1.97;1.60;;;;;;;8.59;100.00;98072.59;4951381;28;20535;-67
2021/10/06 05:45:38;;;;;;;1.13;1.07;;;;;;;8.71;100.00;98078.47;4950352;28;20602;-67
2021/10/06 05:48:07;;;;;;;1.47;1.37;;;;;;;8.70;100.00;98082.09;4921165;28;20435;-68
2021/10/06 05:50:35;;;;;;;1.70;1.60;;;;;;;8.61;100.00;98070.63;4951643;28;20241;-67
2021/10/06 05:53:05;;;;;;;1.60;1.50;;;;;;;8.68;100.00;98090.19;4951733;28;20329;-70
2021/10/06 05:55:33;;;;;;;1.43;1.13;;;;;;;8.71;100.00;98094.31;4943606;28;20222;-69
2021/10/06 05:58:03;;;;;;;1.10;1.00;;;;;;;8.68;100.00;98092.81;4950170;28;20425;-69
2021/10/06 06:00:31;;;;;;;2.90;2.20;;;;;;;8.71;100.00;98096.94;4951182;28;20664;-69
2021/10/06 06:02:59;;;;;;;1.07;1.07;;;;;;;8.66;100.00;98100.06;4946651;28;20243;-68
2021/10/06 06:05:28;;;;;;;1.50;1.40;;;;;;;8.65;100.00;98098.41;4923008;28;20226;-71
2021/10/06 06:07:56;;;;;;;3.63;1.67;;;;;;;8.63;100.00;98099.50;4952792;28;20257;-69
2021/10/06 06:10:24;;;;;;;2.13;1.63;;;;;;;8.66;100.00;98105.34;4935790;28;20214;-70
2021/10/06 06:12:52;;;;;;;1.60;1.50;;;;;;;8.63;100.00;98118.84;4941715;28;20454;-71
2021/10/06 06:15:22;;;;;;;1.70;1.40;;;;;;;8.60;100.00;98111.22;4948198;28;20217;-69
2021/10/06 06:17:50;;;;;;;1.53;1.47;;;;;;;8.66;100.00;98133.56;4953708;28;20324;-69
2021/10/06 06:20:23;;;;;;;2.17;1.60;;;;;;;8.73;100.00;98145.22;4922787;28;20214;-70
2021/10/06 06:22:52;;;;;;;2.17;1.87;;;;;;;8.65;100.00;98156.53;4950245;28;20340;-69
2021/10/06 06:25:22;;;;;;;2.60;2.00;;;;;;;8.63;100.00;98160.28;4954210;28;20218;-68
2021/10/06 06:27:50;;;;;;;2.97;1.77;;;;;;;8.67;100.00;98162.50;4945123;28;20492;-68
2021/10/06 06:30:19;;;;;;;4.87;1.73;;;;;;;8.78;100.00;98157.97;4954831;28;20213;-71
2021/10/06 06:32:49;;;;;;;1.70;1.60;;;;;;;8.76;100.00;98158.13;4953855;28;20619;-70
2021/10/06 06:35:17;;;;;;;1.80;1.40;;;;;;;8.86;100.00;98168.63;4921524;28;20211;-71
2021/10/06 06:37:45;;;;;;;1.63;1.53;;;;;;;8.98;100.00;98166.59;4950996;28;20253;-72
2021/10/06 06:40:13;;;;;;;3.13;1.67;;;;;;;9.07;100.00;98170.16;4954809;28;20211;-69
2021/10/06 06:42:41;;;;;;;2.10;2.00;;;;;;;9.16;100.00;98174.56;4927703;28;22585;-68
2021/10/06 06:45:10;;;;;;;3.43;2.00;;;;;;;9.19;100.00;98176.88;4953587;28;20231;-66
2021/10/06 06:47:39;;;;;;;2.47;1.40;;;;;;;9.29;100.00;98183.94;4949481;28;20202;-67
2021/10/06 06:50:11;;;;;;;4.33;1.67;;;;;;;9.33;100.00;98178.19;4919355;28;20322;-70
2021/10/06 06:52:39;;;;;;;2.47;1.57;;;;;;;9.42;100.00;98181.75;4940771;28;20234;-69
2021/10/06 06:55:08;;;;;;;2.10;1.37;;;;;;;9.56;100.00;98180.38;4949862;28;20551;-69
2021/10/06 06:57:36;;;;;;;1.17;1.07;;;;;;;9.54;100.00;98191.09;4941666;28;20214;-70
2021/10/06 07:00:05;;;;;;;1.00;1.00;;;;;;;9.53;100.00;98192.06;4939006;28;20211;-69
2021/10/06 07:02:33;;;;;;;2.63;0.70;;;;;;;9.56;100.00;98185.66;4949886;28;20210;-68
2021/10/06 07:05:05;;;;;;;1.00;1.00;;;;;;;9.48;100.00;98182.94;4915428;28;20607;-69
2021/10/06 07:07:34;;;;;;;1.13;1.07;;;;;;;9.41;100.00;98188.81;4948569;28;20217;-71
2021/10/06 07:10:03;;;;;;;0.77;0.77;;;;;;;9.36;100.00;98187.63;4954588;28;20590;-66
2021/10/06 07:12:31;;;;;;;1.83;1.03;;;;;;;9.38;100.00;98183.03;4946406;28;20225;-70
2021/10/06 07:14:59;;;;;;;0.87;0.87;;;;;;;9.39;100.00;98187.34;4951921;28;20215;-70
2021/10/06 07:17:28;;;;;;;0.80;0.80;;;;;;;9.38;100.00;98183.84;4950865;28;20220;-69
2021/10/06 07:19:56;;;;;;;0.93;0.93;;;;;;;9.38;100.00;98191.78;4952773;28;20206;-70
2021/10/06 07:22:24;;;;;;;2.97;0.97;;;;;;;9.43;100.00;98193.13;4920711;28;20226;-70
2021/10/06 07:24:55;;;;;;;1.43;0.90;;;;;;;9.44;100.00;98193.00;4918208;28;20245;-71
2021/10/06 07:27:23;;;;;;;0.80;0.80;;;;;;;9.67;100.00;98193.34;4952224;28;20366;-68
2021/10/06 07:29:51;;;;;;;1.93;1.00;;;;;;;9.67;100.00;98193.34;4939962;28;20224;-71
2021/10/06 07:32:19;;;;;;;2.57;1.03;;;;;;;9.73;100.00;98197.22;4954546;28;20661;-68
2021/10/06 07:34:47;;;;;;;1.70;1.00;;;;;;;9.78;100.00;98202.88;4950618;28;20237;-70
2021/10/06 07:37:15;;;;;;;3.27;1.30;;;;;;;9.90;100.00;98198.16;4942090;28;20215;-69
2021/10/06 07:39:43;;;;;;;1.80;1.00;;;;;;;9.83;100.00;98210.31;4915221;28;21415;-70
2021/10/06 07:42:13;;;;;;;0.90;0.90;;;;;;;9.79;100.00;98206.34;4952446;28;20207;-66
2021/10/06 07:44:41;;;;;;;1.50;1.10;;;;;;;9.74;100.00;98206.81;4949803;28;20682;-68
2021/10/06 07:47:10;;;;;;;1.03;1.03;;;;;;;9.82;100.00;98212.16;4953185;28;20644;-69
2021/10/06 07:49:38;;;;;;;2.67;1.50;;;;;;;9.78;100.00;98210.81;4951526;28;20225;-70
2021/10/06 07:52:07;;;;;;;1.27;1.27;;;;;;;9.94;100.00;98219.84;4945975;28;20578;-68
2021/10/06 07:54:36;;;;;;;1.80;1.40;;;;;;;9.96;100.00;98216.06;4927814;28;20256;-70
2021/10/06 07:57:04;;;;;;;1.60;1.50;;;;;;;9.98;100.00;98222.03;4947948;28;20214;-70
2021/10/06 07:59:34;;;;;;;1.30;1.30;;;;;;;10.13;100.00;98224.97;4953492;28;20206;-69
2021/10/06 08:02:03;;;;;;;1.63;1.50;;;;;;;10.16;100.00;98228.28;4952530;28;20203;-70
2021/10/06 08:04:31;;;;;;;1.60;1.50;;;;;;;10.32;100.00;98217.78;4951368;28;20253;-70
2021/10/06 08:06:59;;;;;;;3.33;1.23;;;;;;;10.50;100.00;98224.88;4943594;28;20207;-68
2021/10/06 08:09:27;;;;;;;2.97;1.33;;;;;;;10.60;100.00;98225.56;4941316;28;20218;-73
2021/10/06 08:11:55;;;;;;;1.33;1.20;;;;;;;10.57;100.00;98229.34;4933931;28;20221;-69
2021/10/06 08:14:24;;;;;;;1.70;1.60;;;;;;;10.83;100.00;98225.84;4955706;28;20797;-69
2021/10/06 08:16:53;;;;;;;1.20;1.20;;;;;;;10.86;100.00;98235.31;4948667;28;20237;-70
2021/10/06 08:19:21;;;;;;;2.20;1.53;;;;;;;10.98;100.00;98230.50;4960093;28;20225;-67
2021/10/06 08:21:49;;;;;;;3.47;1.73;;;;;;;11.19;100.00;98238.06;4942958;28;20710;-71
2021/10/06 08:24:17;;;;;;;4.27;1.50;;;;;;;11.08;100.00;98239.19;4949338;28;20375;-69
2021/10/06 08:26:46;;;;;;;4.20;1.33;;;;;;;11.41;100.00;98243.72;4920453;28;20221;-70
2021/10/06 08:29:14;;;;;;;2.40;1.40;;;;;;;11.37;100.00;98250.38;4951465;28;20277;-70
2021/10/06 08:31:42;;;;;;;3.53;1.77;;;;;;;11.38;100.00;98246.72;4949441;28;20726;-67
2021/10/06 08:34:12;;;;;;;1.93;1.47;;;;;;;11.35;100.00;98252.34;4956142;28;20886;-68
2021/10/06 08:36:40;;;;;;;2.70;1.53;;;;;;;11.21;100.00;98252.00;4951564;28;20202;-69
2021/10/06 08:39:08;;;;;;;1.40;1.23;;;;;;;11.10;100.00;98257.56;4947448;28;20219;-70
2021/10/06 08:41:36;;;;;;;1.70;1.57;;;;;;;11.16;100.00;98256.94;4923501;28;20229;-70
2021/10/06 08:44:05;;;;;;;2.10;1.60;;;;;;;11.19;100.00;98258.44;4958193;28;20788;-70
2021/10/06 08:46:34;;;;;;;1.73;1.63;;;;;;;11.18;100.00;98254.13;4954042;28;20244;-70
2021/10/06 08:49:02;;;;;;;2.53;1.40;;;;;;;11.16;100.00;98243.66;4959966;28;20219;-67
2021/10/06 08:51:32;;;;;;;1.67;1.57;;;;;;;11.26;100.00;98251.50;4938734;28;20221;-71
2021/10/06 08:54:00;;;;;;;1.67;1.30;;;;;;;11.21;100.00;98259.09;4940810;28;20234;-70
2021/10/06 08:56:29;;;;;;;4.13;1.43;;;;;;;11.12;100.00;98267.03;4918376;28;20233;-68
2021/10/06 08:58:58;;;;;;;4.10;1.43;;;;;;;11.07;100.00;98257.91;4956500;28;20202;-69
2021/10/06 09:01:29;;;;;;;1.57;1.47;;;;;;;11.32;100.00;98266.75;4953213;28;20300;-68
2021/10/06 09:04:00;;;;;;;1.60;1.07;;;;;;;11.37;100.00;98259.16;4955023;28;20681;-70
2021/10/06 09:06:35;;;;;;;1.07;1.07;;;;;;;11.41;100.00;98270.28;4948429;28;20626;-67
2021/10/06 09:09:14;;;;;;;1.63;1.33;;;;;;;11.28;100.00;98262.78;4945301;28;20241;-67
2021/10/06 09:11:46;;;;;;;0.83;0.83;;;;;;;11.27;100.00;98258.47;4903828;28;20292;-67
2021/10/06 09:14:24;;;;;;;1.60;1.20;;;;;;;11.43;100.00;98277.09;4952403;28;20541;-66
2021/10/06 09:17:05;;;;;;;2.73;1.13;;;;;;;11.41;100.00;98264.97;4952505;28;20292;-67
2021/10/06 09:19:42;;;;;;;0.80;0.80;;;;;;;11.37;100.00;98268.94;4954602;28;20591;-69
2021/10/06 09:22:21;;;;;;;1.57;1.47;;;;;;;11.36;100.00;98264.63;4954419;28;20594;-68
2021/10/06 09:24:54;;;;;;;2.00;1.40;;;;;;;11.43;100.00;98270.94;4937248;28;20268;-68
2021/10/06 09:27:23;;;;;;;1.20;1.10;;;;;;;11.46;100.00;98272.44;4922110;28;20232;-67
2021/10/06 09:29:53;;;;;;;2.47;1.17;;;;;;;11.55;100.00;98272.31;4945503;28;20232;-67
2021/10/06 09:32:25;;;;;;;1.33;1.00;;;;;;;11.71;100.00;98281.28;4916231;28;20217;-69
2021/10/06 09:35:04;;;;;;;3.73;1.00;;;;;;;11.84;100.00;98284.25;4941224;28;20294;-67
2021/10/06 09:37:33;;;;;;;2.43;1.37;;;;;;;12.07;100.00;98296.09;4956097;28;20342;-69
2021/10/06 09:40:02;;;;;;;1.10;1.03;;;;;;;11.95;100.00;98288.44;4956137;28;20667;-68
2021/10/06 09:42:31;;;;;;;2.20;1.50;;;;;;;12.11;100.00;98287.63;4947123;28;20332;-68
2021/10/06 09:44:59;;;;;;;1.33;1.10;;;;;;;11.93;100.00;98284.25;4954990;28;20202;-68
2021/10/06 09:47:29;;;;;;;1.97;1.00;;;;;;;12.07;100.00;98275.69;4914631;28;20234;-69
2021/10/06 09:50:00;;;;;;;1.23;1.23;;;;;;;12.16;100.00;98287.94;4945918;28;21029;-70
2021/10/06 09:52:30;;;;;;;2.23;1.00;;;;;;;12.31;100.00;98292.56;4948464;28;20514;-66
2021/10/06 09:55:01;;;;;;;1.73;1.63;;;;;;;12.71;100.00;98290.03;4953478;28;20210;-69
2021/10/06 09:57:31;;;;;;;2.87;2.03;;;;;;;12.64;100.00;98297.03;4946205;28;20781;-69
2021/10/06 10:00:02;;;;;;;4.30;2.40;;;;;;;12.69;100.00;98298.19;4951452;28;20214;-68
2021/10/06 10:02:31;;;;;;;2.23;2.03;;;;;;;12.61;100.00;98298.19;4914201;28;20835;-69
2021/10/06 10:04:59;;;;;;;13.27;2.53;;;;;;;12.90;100.00;98288.00;4923552;28;20206;-70
2021/10/06 10:07:28;;;;;;;1.93;1.47;;;;;;;13.15;100.00;98281.53;4946547;28;20294;-67
2021/10/06 10:09:56;;;;;;;2.47;1.00;;;;;;;13.44;100.00;98288.09;4941866;28;20222;-69
2021/10/06 10:12:27;;;;;;;2.27;1.03;;;;;;;13.25;100.00;98297.31;4938421;28;20214;-68
2021/10/06 10:14:56;;;;;;;1.07;1.00;;;;;;;12.74;100.00;98302.97;4948710;28;20210;-69
2021/10/06 10:17:25;;;;;;;1.37;1.27;;;;;;;12.49;100.00;98304.88;4914965;28;20214;-66
2021/10/06 10:19:56;;;;;;;1.97;1.23;;;;;;;12.06;100.00;98310.34;4951206;28;20210;-67
2021/10/06 10:22:26;;;;;;;2.63;1.07;;;;;;;11.78;100.00;98326.59;4953073;28;20219;-67
2021/10/06 10:24:54;;;;;;;0.97;0.83;;;;;;;11.51;100.00;98321.38;4944799;28;20681;-68
2021/10/06 10:27:23;;;;;;;3.33;1.13;;;;;;;11.60;100.00;98316.09;4941448;28;20242;-68
2021/10/06 10:30:03;;;;;;;2.13;1.17;;;;;;;11.46;100.00;98326.34;4953037;28;20529;-66
2021/10/06 10:32:42;;;;;;;0.80;0.80;;;;;;;11.36;100.00;98323.81;4917692;28;20405;-66
2021/10/06 10:35:11;;;;;;;1.37;1.13;;;;;;;11.15;100.00;98325.06;4951931;28;20216;-65
2021/10/06 10:38:16;;;;;;;2.40;0.77;;;;;;;10.52;100.00;98326.25;4953847;28;20241;-66
2021/10/06 10:40:47;;;;;;;1.90;0.97;;;;;;;10.14;100.00;98329.91;4950215;28;20967;-66
2021/10/06 10:43:16;;;;;;;1.30;0.80;;;;;;;10.09;100.00;98337.47;4945803;28;20230;-65
2021/10/06 10:45:49;;;;;;;1.83;1.33;;;;;;;10.13;100.00;98330.88;4952694;28;20333;-66
2021/10/06 10:48:19;;;;;;;1.93;1.00;;;;;;;10.39;100.00;98340.66;4920428;28;20225;-65
2021/10/06 10:51:13;;;;;;;0.93;0.87;;;;;;;10.57;100.00;98338.00;4951890;28;20705;-67
2021/10/06 10:54:07;;;;;;;1.07;1.07;;;;;;;10.76;100.00;98343.25;4953620;28;20234;-66
2021/10/06 10:56:56;;;;;;;2.20;1.10;;;;;;;10.84;100.00;98346.81;4939759;28;20425;-68
2021/10/06 10:59:25;;;;;;;2.30;1.10;;;;;;;10.96;100.00;98341.22;4941848;28;20246;-67
2021/10/06 11:01:57;;;;;;;1.10;1.00;;;;;;;11.05;100.00;98339.44;4955427;28;20619;-68
2021/10/06 11:04:27;;;;;;;2.00;1.43;;;;;;;11.26;100.00;98339.03;4913376;28;20285;-67
2021/10/06 11:06:57;;;;;;;1.47;1.23;;;;;;;11.54;100.00;98338.81;4956555;28;20638;-69
2021/10/06 11:09:53;;;;;;;2.30;1.33;;;;;;;11.65;100.00;98341.16;4941779;28;20219;-67
2021/10/06 11:12:53;;;;;;;1.77;1.40;;;;;;;11.81;100.00;98342.19;4946652;28;20219;-68
2021/10/06 11:15:29;;;;;;;1.50;1.33;;;;;;;11.63;100.00;98342.31;4953424;28;21000;-67
2021/10/06 11:18:18;;;;;;;6.90;1.53;;;;;;;12.00;100.00;98346.38;4955357;28;20221;-68
2021/10/06 11:21:06;;;;;;;2.40;1.37;;;;;;;12.04;100.00;98339.75;4942710;28;20521;-68
2021/10/06 11:23:57;;;;;;;1.77;1.60;;;;;;;12.04;100.00;98350.38;4952495;28;20864;-67
2021/10/06 11:26:33;;;;;;;6.30;1.83;;;;;;;12.05;100.00;98360.03;4943663;28;20230;-68
2021/10/06 11:29:07;;;;;;;1.13;0.97;;;;;;;11.51;100.00;98365.69;4943376;28;20825;-68
2021/10/06 11:31:36;;;;;;;2.77;1.43;;;;;;;10.89;100.00;98372.84;4952723;28;20534;-68
2021/10/06 11:34:08;;;;;;;2.63;1.07;;;;;;;10.05;100.00;98375.00;4943700;28;20347;-68
2021/10/06 11:36:36;;;;;;;1.73;0.70;;;;;;;9.43;100.00;98379.16;4926113;28;20217;-68
2021/10/06 11:39:08;;;;;;;1.37;0.77;;;;;;;8.66;100.00;98376.63;4958913;28;20210;-68
2021/10/06 11:41:38;;;;;;;0.87;0.87;;;;;;;8.45;100.00;98384.69;4919602;28;20987;-69
2021/10/06 11:44:06;;;;;;;1.70;0.87;;;;;;;8.42;100.00;98377.91;4946895;28;20230;-67